createdAt,value
2018-09-29T00:01:12.120Z,102775.53
2018-09-29T00:03:40.673Z,102779.11
2018-09-29T00:06:09.547Z,102779.41
2018-09-29T00:08:38.515Z,102773.92
2018-09-29T00:11:07.222Z,102771.14
2018-09-29T00:13:35.704Z,102773.27
2018-09-29T00:16:06.325Z,102775.86
2018-09-29T00:18:34.837Z,102776.06
2018-09-29T00:21:05.051Z,102779.13
2018-09-29T00:23:33.628Z,102784.38
2018-09-29T00:26:04.218Z,102779.74
2018-09-29T00:28:33.283Z,102784.33
2018-09-29T00:31:03.160Z,102774.41
2018-09-29T00:33:31.642Z,102768.11
2018-09-29T00:36:00.156Z,102767.58
2018-09-29T00:38:29.021Z,102772.95
2018-09-29T00:40:57.863Z,102770.44
2018-09-29T00:43:26.419Z,102772.13
2018-09-29T00:45:54.915Z,102770.78
2018-09-29T00:48:23.645Z,102772.90
2018-09-29T00:50:52.400Z,102772.21
2018-09-29T00:53:20.895Z,102774.96
2018-09-29T00:55:49.417Z,102775.16
2018-09-29T00:58:17.917Z,102769.70
2018-09-29T01:00:46.449Z,102770.21
2018-09-29T01:03:14.970Z,102769.78
2018-09-29T01:05:43.523Z,102778.83
2018-09-29T01:08:12.007Z,102772.59
2018-09-29T01:10:40.533Z,102770.34
2018-09-29T01:13:09.200Z,102767.73
2018-09-29T01:15:37.714Z,102766.66
2018-09-29T01:18:06.517Z,102761.36
2018-09-29T01:20:35.519Z,102759.81
2018-09-29T01:23:05.557Z,102765.72
2018-09-29T01:25:34.070Z,102777.27
2018-09-29T01:28:04.113Z,102778.39
2018-09-29T01:30:32.639Z,102775.87
2018-09-29T01:33:03.248Z,102774.51
2018-09-29T01:35:31.780Z,102777.00
2018-09-29T01:38:00.268Z,102780.91
2018-09-29T01:40:28.767Z,102775.42
2018-09-29T01:42:57.542Z,102770.61
2018-09-29T01:45:26.296Z,102776.33
2018-09-29T01:47:54.794Z,102769.79
2018-09-29T01:50:23.382Z,102775.98
2018-09-29T01:52:51.947Z,102770.62
2018-09-29T01:55:20.466Z,102767.27
2018-09-29T01:57:49.074Z,102765.94
2018-09-29T02:00:17.944Z,102756.56
2018-09-29T02:02:46.454Z,102760.77
2018-09-29T02:05:15.030Z,102761.25
2018-09-29T02:07:43.513Z,102760.70
2018-09-29T02:10:12.329Z,102761.09
2018-09-29T02:12:40.805Z,102752.39
2018-09-29T02:15:09.302Z,102758.23
2018-09-29T02:17:37.977Z,102763.53
2018-09-29T02:20:06.464Z,102762.98
2018-09-29T02:22:34.932Z,102761.55
2018-09-29T02:25:05.394Z,102761.52
2018-09-29T02:27:33.902Z,102764.23
2018-09-29T02:30:04.204Z,102757.17
2018-09-29T02:32:32.770Z,102762.97
2018-09-29T02:35:03.145Z,102760.94
2018-09-29T02:37:31.956Z,102756.45
2018-09-29T02:40:00.435Z,102755.75
2018-09-29T02:42:28.937Z,102757.25
2018-09-29T02:44:57.471Z,102760.52
2018-09-29T02:47:25.957Z,102754.03
2018-09-29T02:49:54.455Z,102762.17
2018-09-29T02:52:22.974Z,102752.77
2018-09-29T02:54:51.469Z,102759.61
2018-09-29T02:57:19.962Z,102755.97
2018-09-29T02:59:48.475Z,102756.19
2018-09-29T03:02:17.107Z,102752.52
2018-09-29T03:04:46.142Z,102743.78
2018-09-29T03:07:15.384Z,102744.02
2018-09-29T03:09:44.244Z,102749.48
2018-09-29T03:12:12.753Z,102747.63
2018-09-29T03:14:41.527Z,102747.45
2018-09-29T03:17:10.021Z,102744.34
2018-09-29T03:19:38.524Z,102745.67
2018-09-29T03:22:07.083Z,102739.16
2018-09-29T03:24:35.585Z,102745.73
2018-09-29T03:27:05.387Z,102745.95
2018-09-29T03:29:34.126Z,102743.45
2018-09-29T03:32:03.883Z,102737.18
2018-09-29T03:34:32.454Z,102736.87
2018-09-29T03:37:03.429Z,102736.45
2018-09-29T03:39:31.905Z,102739.27
2018-09-29T03:42:00.429Z,102742.27
2018-09-29T03:44:29.503Z,102747.08
2018-09-29T03:46:58.018Z,102748.73
2018-09-29T03:49:26.647Z,102746.02
2018-09-29T03:51:55.385Z,102745.64
2018-09-29T03:54:23.960Z,102744.63
2018-09-29T03:56:52.553Z,102751.14
2018-09-29T03:59:21.127Z,102746.49
2018-09-29T04:01:49.789Z,102746.45
2018-09-29T04:04:18.352Z,102742.48
2018-09-29T04:06:46.873Z,102744.72
2018-09-29T04:09:15.653Z,102734.67
2018-09-29T04:11:44.798Z,102741.20
2018-09-29T04:14:13.315Z,102736.86
2018-09-29T04:16:41.830Z,102732.31
2018-09-29T04:19:10.464Z,102735.98
2018-09-29T04:21:46.865Z,102740.59
2018-09-29T04:24:16.095Z,102746.59
2018-09-29T04:26:45.081Z,102747.34
2018-09-29T04:29:15.017Z,102745.95
2018-09-29T04:31:43.700Z,102747.92
2018-09-29T04:34:13.131Z,102740.12
2018-09-29T04:36:42.376Z,102733.31
2018-09-29T04:39:12.625Z,102730.92
2018-09-29T04:41:41.129Z,102729.30
2018-09-29T04:44:10.219Z,102733.87
2018-09-29T04:46:39.210Z,102736.15
2018-09-29T04:49:08.787Z,102728.80
2018-09-29T04:51:37.243Z,102730.92
2018-09-29T04:54:08.236Z,102738.08
2018-09-29T04:56:36.736Z,102731.48
2018-09-29T04:59:05.281Z,102734.67
2018-09-29T05:01:33.810Z,102731.55
2018-09-29T05:04:03.763Z,102730.09
2018-09-29T05:06:32.323Z,102733.56
2018-09-29T05:09:00.771Z,102730.96
2018-09-29T05:11:29.316Z,102731.22
2018-09-29T05:13:57.907Z,102735.08
2018-09-29T05:16:26.396Z,102733.91
2018-09-29T05:18:54.871Z,102732.24
2018-09-29T05:21:23.368Z,102734.92
2018-09-29T05:23:51.909Z,102739.27
2018-09-29T05:26:20.413Z,102739.80
2018-09-29T05:28:48.929Z,102737.90
2018-09-29T05:31:17.466Z,102741.78
2018-09-29T05:33:46.060Z,102741.03
2018-09-29T05:36:14.629Z,102732.41
2018-09-29T05:38:43.139Z,102735.95
2018-09-29T05:41:11.830Z,102733.75
2018-09-29T05:43:40.327Z,102733.61
2018-09-29T05:46:08.841Z,102733.75
2018-09-29T05:48:37.686Z,102734.77
2018-09-29T05:51:06.164Z,102729.81
2018-09-29T05:53:34.687Z,102729.64
2018-09-29T05:56:05.333Z,102729.00
2018-09-29T05:58:34.157Z,102737.84
2018-09-29T06:01:04.052Z,102740.52
2018-09-29T06:03:32.545Z,102749.17
2018-09-29T06:06:02.779Z,102750.23
2018-09-29T06:08:31.287Z,102742.37
2018-09-29T06:10:59.781Z,102742.17
2018-09-29T06:13:28.323Z,102745.82
2018-09-29T06:15:57.017Z,102747.86
2018-09-29T06:18:25.521Z,102752.09
2018-09-29T06:20:54.418Z,102752.55
2018-09-29T06:23:22.895Z,102749.12
2018-09-29T06:25:51.433Z,102753.37
2018-09-29T06:28:19.975Z,102748.50
2018-09-29T06:30:48.588Z,102755.47
2018-09-29T06:33:17.524Z,102747.58
2018-09-29T06:35:46.064Z,102742.30
2018-09-29T06:38:14.572Z,102739.67
2018-09-29T06:40:43.271Z,102735.48
2018-09-29T06:43:11.834Z,102733.73
2018-09-29T06:45:40.355Z,102727.80
2018-09-29T06:48:08.941Z,102734.05
2018-09-29T06:50:37.551Z,102732.53
2018-09-29T06:53:06.103Z,102732.53
2018-09-29T06:55:34.727Z,102741.91
2018-09-29T06:58:04.886Z,102743.06
2018-09-29T07:00:33.462Z,102748.86
2018-09-29T07:03:04.053Z,102752.23
2018-09-29T07:05:32.562Z,102755.01
2018-09-29T07:08:04.002Z,102756.31
2018-09-29T07:10:32.528Z,102759.80
2018-09-29T07:13:01.081Z,102753.25
2018-09-29T07:15:29.981Z,102759.47
2018-09-29T07:17:58.624Z,102754.63
2018-09-29T07:20:27.127Z,102754.00
2018-09-29T07:22:55.635Z,102755.44
2018-09-29T07:25:24.292Z,102759.71
2018-09-29T07:27:52.775Z,102755.40
2018-09-29T07:30:21.268Z,102751.30
2018-09-29T07:32:49.751Z,102759.98
2018-09-29T07:35:18.263Z,102757.17
2018-09-29T07:37:46.769Z,102749.14
2018-09-29T07:40:15.352Z,102753.61
2018-09-29T07:42:44.181Z,102753.30
2018-09-29T07:45:12.826Z,102754.84
2018-09-29T07:47:41.356Z,102759.59
2018-09-29T07:50:09.924Z,102760.80
2018-09-29T07:52:38.500Z,102754.73
2018-09-29T07:55:07.003Z,102752.41
2018-09-29T07:57:35.530Z,102758.14
2018-09-29T08:00:08.268Z,102754.24
2018-09-29T08:02:37.534Z,102752.69
2018-09-29T08:05:06.321Z,102752.28
2018-09-29T08:07:35.210Z,102752.28
2018-09-29T08:10:05.526Z,102750.89
2018-09-29T08:12:34.074Z,102744.53
2018-09-29T08:15:04.448Z,102735.75
2018-09-29T08:17:33.424Z,102740.80
2018-09-29T08:20:03.569Z,102736.32
2018-09-29T08:22:32.100Z,102736.83
2018-09-29T08:25:00.644Z,102739.52
2018-09-29T08:27:29.239Z,102739.20
2018-09-29T08:30:03.897Z,102745.92
2018-09-29T08:32:32.478Z,102737.27
2018-09-29T08:35:02.733Z,102752.50
2018-09-29T08:37:31.291Z,102748.18
2018-09-29T08:39:59.792Z,102744.84
2018-09-29T08:42:28.352Z,102740.52
2018-09-29T08:44:56.876Z,102744.95
2018-09-29T08:47:25.471Z,102745.11
2018-09-29T08:49:53.970Z,102738.75
2018-09-29T08:52:22.478Z,102748.73
2018-09-29T08:54:50.997Z,102743.95
2018-09-29T08:57:19.498Z,102738.68
2018-09-29T08:59:48.050Z,102747.44
2018-09-29T09:02:16.566Z,102746.56
2018-09-29T09:04:45.281Z,102746.56
2018-09-29T09:07:13.824Z,102741.59
2018-09-29T09:09:42.375Z,102741.61
2018-09-29T09:12:10.912Z,102741.06
2018-09-29T09:14:39.422Z,102736.66
2018-09-29T09:17:07.949Z,102731.80
2018-09-29T09:19:36.485Z,102744.09
2018-09-29T09:22:05.895Z,102729.81
2018-09-29T09:24:34.537Z,102733.78
2018-09-29T09:27:04.767Z,102723.33
2018-09-29T09:29:33.586Z,102728.66
2018-09-29T09:32:08.738Z,102728.13
2018-09-29T09:34:37.373Z,102729.00
2018-09-29T09:37:06.053Z,102728.27
2018-09-29T09:39:34.574Z,102720.68
2018-09-29T09:42:04.710Z,102715.84
2018-09-29T09:44:33.237Z,102714.09
2018-09-29T09:47:02.606Z,102723.83
2018-09-29T09:49:31.484Z,102710.41
2018-09-29T10:02:25.809Z,102692.20
2018-09-29T10:04:54.356Z,102688.91
2018-09-29T10:07:22.892Z,102688.54
2018-09-29T10:09:51.775Z,102684.56
2018-09-29T10:12:20.313Z,102678.29
2018-09-29T10:14:48.818Z,102676.63
2018-09-29T10:19:51.948Z,102673.28
2018-09-29T10:22:20.504Z,102667.55
2018-09-29T10:24:49.041Z,102670.02
2018-09-29T10:27:19.962Z,102670.11
2018-09-29T10:29:48.477Z,102668.72
2018-09-29T10:32:17.001Z,102661.30
2018-09-29T10:37:47.148Z,102648.02
2018-09-29T10:40:27.879Z,102649.16
2018-09-29T10:43:07.253Z,102649.58
2018-09-29T10:45:35.727Z,102647.03
2018-09-29T10:48:05.180Z,102650.20
2018-09-29T10:50:36.950Z,102641.41
2018-09-29T10:53:05.680Z,102639.73
2018-09-29T10:55:34.206Z,102637.81
2018-09-29T10:58:08.796Z,102636.42
2018-09-29T11:00:37.324Z,102634.38
2018-09-29T11:03:05.881Z,102631.19
2018-09-29T11:05:35.096Z,102629.34
2018-09-29T11:08:05.028Z,102623.67
2018-09-29T11:10:36.889Z,102618.70
2018-09-29T11:13:05.864Z,102614.75
2018-09-29T11:15:34.411Z,102608.72
2018-09-29T11:18:05.597Z,102606.07
2018-09-29T11:20:34.125Z,102592.87
2018-09-29T11:23:04.089Z,102592.52
2018-09-29T11:25:32.922Z,102591.19
2018-09-29T11:28:02.875Z,102602.94
2018-09-29T11:30:31.425Z,102597.55
2018-09-29T11:33:03.111Z,102593.75
2018-09-29T11:35:31.719Z,102585.94
2018-09-29T11:38:00.258Z,102582.95
2018-09-29T11:40:28.989Z,102588.92
2018-09-29T11:42:57.488Z,102577.67
2018-09-29T11:45:32.436Z,102568.92
2018-09-29T11:48:03.469Z,102561.59
2018-09-29T11:50:32.053Z,102553.97
2018-09-29T11:53:00.553Z,102554.50
2018-09-29T11:55:29.354Z,102553.64
2018-09-29T11:57:58.244Z,102547.91
2018-09-29T12:00:26.791Z,102540.19
2018-09-29T12:02:55.526Z,102533.57
2018-09-29T12:05:24.129Z,102521.21
2018-09-29T12:07:52.889Z,102529.30
2018-09-29T12:10:23.758Z,102522.76
2018-09-29T12:12:52.317Z,102519.25
2018-09-29T12:15:20.924Z,102513.98
2018-09-29T12:17:49.599Z,102517.30
2018-09-29T12:20:18.125Z,102508.09
2018-09-29T12:22:46.674Z,102503.41
2018-09-29T12:25:15.487Z,102494.82
2018-09-29T12:27:44.072Z,102493.20
2018-09-29T12:30:12.581Z,102485.58
2018-09-29T12:32:41.421Z,102480.70
2018-09-29T12:35:09.978Z,102483.92
2018-09-29T12:37:38.671Z,102472.38
2018-09-29T12:40:07.189Z,102473.66
2018-09-29T12:42:35.789Z,102473.73
2018-09-29T12:45:04.330Z,102464.62
2018-09-29T12:47:32.880Z,102475.75
2018-09-29T12:50:03.039Z,102469.53
2018-09-29T12:52:31.556Z,102457.95
2018-09-29T12:55:00.076Z,102458.42
2018-09-29T12:57:28.621Z,102443.20
2018-09-29T12:59:57.194Z,102447.00
2018-09-29T13:02:25.706Z,102442.25
2018-09-29T13:04:54.299Z,102431.08
2018-09-29T13:07:22.868Z,102431.84
2018-09-29T13:09:51.411Z,102427.13
2018-09-29T13:12:19.964Z,102421.62
2018-09-29T13:14:48.796Z,102430.36
2018-09-29T13:17:17.320Z,102431.88
2018-09-29T13:19:45.885Z,102426.31
2018-09-29T13:22:15.208Z,102424.78
2018-09-29T13:24:43.738Z,102410.20
2018-09-29T13:27:12.502Z,102414.38
2018-09-29T13:29:41.333Z,102409.45
2018-09-29T13:32:10.289Z,102403.58
2018-09-29T13:34:38.833Z,102397.53
2018-09-29T13:37:07.449Z,102398.81
2018-09-29T13:39:36.051Z,102393.47
2018-09-29T13:42:05.198Z,102387.34
2018-09-29T13:44:34.398Z,102378.50
2018-09-29T13:47:04.877Z,102384.12
2018-09-29T13:49:33.424Z,102383.44
2018-09-29T13:52:02.724Z,102388.02
2018-09-29T13:54:31.558Z,102388.34
2018-09-29T13:57:00.075Z,102380.36
2018-09-29T13:59:28.686Z,102368.86
2018-09-29T14:01:57.698Z,102356.22
2018-09-29T14:04:26.222Z,102359.33
2018-09-29T14:06:54.749Z,102348.67
2018-09-29T14:09:23.294Z,102341.61
2018-09-29T14:11:51.867Z,102336.48
2018-09-29T14:14:20.388Z,102335.56
2018-09-29T14:16:48.930Z,102329.49
2018-09-29T14:19:17.518Z,102332.89
2018-09-29T14:21:46.046Z,102325.55
2018-09-29T14:24:20.694Z,102322.77
2018-09-29T14:26:49.571Z,102320.52
2018-09-29T14:29:18.160Z,102321.91
2018-09-29T14:31:46.660Z,102314.09
2018-09-29T14:34:15.192Z,102306.49
2018-09-29T14:36:43.676Z,102302.45
2018-09-29T14:39:12.246Z,102301.88
2018-09-29T14:41:40.909Z,102288.92
2018-09-29T14:44:10.108Z,102283.38
2018-09-29T14:46:38.633Z,102287.19
2018-09-29T14:49:07.238Z,102282.64
2018-09-29T14:51:35.799Z,102275.61
2018-09-29T14:54:06.381Z,102268.33
2018-09-29T14:56:35.042Z,102269.28
2018-09-29T14:59:05.673Z,102266.55
2018-09-29T15:01:34.250Z,102253.87
2018-09-29T15:04:06.183Z,102257.66
2018-09-29T15:06:34.995Z,102246.98
2018-09-29T15:09:08.415Z,102246.13
2018-09-29T15:11:37.470Z,102239.06
2018-09-29T15:14:06.136Z,102235.89
2018-09-29T15:16:34.646Z,102231.05
2018-09-29T15:19:05.226Z,102225.41
2018-09-29T15:21:33.798Z,102239.58
2018-09-29T15:24:04.128Z,102232.84
2018-09-29T15:26:32.674Z,102232.74
2018-09-29T15:29:02.781Z,102227.43
2018-09-29T15:31:31.325Z,102224.74
2018-09-29T15:33:59.842Z,102217.05
2018-09-29T15:36:28.485Z,102217.89
2018-09-29T15:38:57.028Z,102217.64
2018-09-29T15:41:25.802Z,102214.14
2018-09-29T15:43:54.468Z,102218.66
2018-09-29T15:46:23.007Z,102211.46
2018-09-29T15:48:51.742Z,102211.41
2018-09-29T15:51:20.202Z,102215.22
2018-09-29T15:53:49.120Z,102209.26
2018-09-29T15:56:18.051Z,102202.30
2018-09-29T15:58:46.612Z,102209.25
2018-09-29T16:01:15.169Z,102205.46
2018-09-29T16:03:43.902Z,102200.09
2018-09-29T16:06:12.855Z,102198.27
2018-09-29T16:08:41.386Z,102194.82
2018-09-29T16:11:11.037Z,102193.91
2018-09-29T16:13:39.637Z,102192.52
2018-09-29T16:16:08.236Z,102189.49
2018-09-29T16:18:36.798Z,102187.88
2018-09-29T16:21:05.487Z,102183.06
2018-09-29T16:23:34.114Z,102185.73
2018-09-29T16:26:04.862Z,102180.61
2018-09-29T16:28:33.381Z,102180.84
2018-09-29T16:31:03.787Z,102174.89
2018-09-29T16:33:32.319Z,102176.86
2018-09-29T16:36:00.850Z,102181.15
2018-09-29T16:38:29.481Z,102178.87
2018-09-29T16:40:57.944Z,102173.63
2018-09-29T16:43:26.578Z,102171.02
2018-09-29T16:45:55.133Z,102178.75
2018-09-29T16:48:23.714Z,102171.95
2018-09-29T16:50:52.378Z,102166.55
2018-09-29T16:53:22.445Z,102165.87
2018-09-29T16:55:50.974Z,102161.99
2018-09-29T16:58:19.521Z,102161.03
2018-09-29T17:00:48.590Z,102155.87
2018-09-29T17:03:17.543Z,102152.53
2018-09-29T17:05:46.297Z,102155.66
2018-09-29T17:08:14.893Z,102150.77
2018-09-29T17:10:44.238Z,102153.75
2018-09-29T17:13:12.765Z,102151.66
2018-09-29T17:15:41.304Z,102158.95
2018-09-29T17:18:09.908Z,102163.74
2018-09-29T17:20:40.301Z,102160.42
2018-09-29T17:23:08.828Z,102155.08
2018-09-29T17:25:37.361Z,102154.83
2018-09-29T17:28:05.897Z,102160.56
2018-09-29T17:30:34.442Z,102157.23
2018-09-29T17:33:05.606Z,102159.23
2018-09-29T17:35:34.158Z,102153.83
2018-09-29T17:38:05.922Z,102152.08
2018-09-29T17:40:34.546Z,102158.41
2018-09-29T17:43:04.929Z,102154.37
2018-09-29T17:45:33.479Z,102162.91
2018-09-29T17:48:04.606Z,102161.72
2018-09-29T17:50:33.337Z,102155.58
2018-09-29T17:53:03.205Z,102155.37
2018-09-29T17:55:31.761Z,102150.30
2018-09-29T17:58:00.277Z,102152.30
2018-09-29T18:00:28.810Z,102148.19
2018-09-29T18:02:57.441Z,102145.98
2018-09-29T18:05:26.050Z,102149.34
2018-09-29T18:07:54.582Z,102141.53
2018-09-29T18:10:23.177Z,102140.11
2018-09-29T18:12:51.706Z,102136.06
2018-09-29T18:15:20.237Z,102140.88
2018-09-29T18:17:48.781Z,102138.61
2018-09-29T18:20:17.496Z,102132.11
2018-09-29T18:22:46.166Z,102133.00
2018-09-29T18:25:14.977Z,102139.16
2018-09-29T18:27:44.898Z,102140.64
2018-09-29T18:30:13.464Z,102135.61
2018-09-29T18:32:41.985Z,102136.44
2018-09-29T18:35:10.555Z,102138.58
2018-09-29T18:37:39.129Z,102133.29
2018-09-29T18:40:07.708Z,102139.11
2018-09-29T18:42:36.342Z,102135.50
2018-09-29T18:45:05.273Z,102134.08
2018-09-29T18:47:33.816Z,102134.92
2018-09-29T18:50:04.006Z,102140.97
2018-09-29T18:52:32.678Z,102136.01
2018-09-29T18:55:04.023Z,102141.81
2018-09-29T18:57:32.877Z,102137.29
2018-09-29T19:00:03.222Z,102139.38
2018-09-29T19:02:32.023Z,102140.28
2018-09-29T19:05:00.525Z,102141.89
2018-09-29T19:07:29.049Z,102136.35
2018-09-29T19:09:57.630Z,102136.47
2018-09-29T19:12:26.131Z,102128.06
2018-09-29T19:14:54.813Z,102131.41
2018-09-29T19:17:23.413Z,102128.42
2018-09-29T19:19:52.624Z,102127.80
2018-09-29T19:22:21.156Z,102124.63
2018-09-29T19:24:49.956Z,102125.72
2018-09-29T19:27:18.663Z,102117.86
2018-09-29T19:29:47.198Z,102109.47
2018-09-29T19:32:16.276Z,102116.88
2018-09-29T19:34:44.891Z,102110.57
2018-09-29T19:37:13.461Z,102103.69
2018-09-29T19:39:42.092Z,102108.74
2018-09-29T19:42:10.600Z,102099.50
2018-09-29T19:44:39.164Z,102103.25
2018-09-29T19:47:07.688Z,102104.60
2018-09-29T19:49:36.252Z,102106.19
2018-09-29T19:52:06.127Z,102105.70
2018-09-29T19:54:34.699Z,102101.48
2018-09-29T19:57:05.066Z,102096.64
2018-09-29T19:59:33.596Z,102098.97
2018-09-29T20:02:04.351Z,102093.12
2018-09-29T20:04:32.950Z,102097.39
2018-09-29T20:07:04.256Z,102091.86
2018-09-29T20:09:32.792Z,102091.73
2018-09-29T20:12:03.687Z,102092.62
2018-09-29T20:14:32.214Z,102085.64
2018-09-29T20:17:00.928Z,102083.14
2018-09-29T20:19:29.500Z,102086.39
2018-09-29T20:21:58.040Z,102082.02
2018-09-29T20:24:26.642Z,102075.69
2018-09-29T20:26:55.287Z,102078.72
2018-09-29T20:29:23.997Z,102074.68
2018-09-29T20:31:52.568Z,102079.08
2018-09-29T20:34:21.079Z,102080.33
2018-09-29T20:36:50.071Z,102074.70
2018-09-29T20:39:18.588Z,102071.55
2018-09-29T20:41:47.231Z,102073.39
2018-09-29T20:44:15.993Z,102072.41
2018-09-29T20:46:44.500Z,102072.26
2018-09-29T20:49:13.021Z,102067.57
2018-09-29T20:51:41.705Z,102064.77
2018-09-29T20:54:10.645Z,102059.00
2018-09-29T20:56:39.217Z,102054.70
2018-09-29T20:59:07.733Z,102051.02
2018-09-29T21:01:36.409Z,102048.28
2018-09-29T21:04:05.129Z,102049.97
2018-09-29T21:06:33.735Z,102040.90
2018-09-29T21:09:04.625Z,102045.94
2018-09-29T21:11:33.169Z,102043.60
2018-09-29T21:14:04.198Z,102038.60
2018-09-29T21:16:32.748Z,102032.22
2018-09-29T21:19:03.532Z,102027.19
2018-09-29T21:21:32.046Z,102021.12
2018-09-29T21:24:00.681Z,102021.31
2018-09-29T21:26:29.469Z,102022.81
2018-09-29T21:28:57.994Z,102019.31
2018-09-29T21:31:27.009Z,102022.50
2018-09-29T21:33:55.819Z,102017.63
2018-09-29T21:36:24.328Z,102020.66
2018-09-29T21:38:52.930Z,102017.50
2018-09-29T21:41:21.836Z,102014.13
2018-09-29T21:43:50.370Z,102004.91
2018-09-29T21:46:20.155Z,102001.72
2018-09-29T21:48:48.698Z,102001.72
2018-09-29T21:51:17.438Z,102008.47
2018-09-29T21:53:45.996Z,102001.25
2018-09-29T21:56:14.797Z,101999.22
2018-09-29T21:58:43.334Z,102003.62
2018-09-29T22:01:17.081Z,101996.43
2018-09-29T22:03:45.626Z,101992.23
2018-09-29T22:06:14.228Z,101984.48
2018-09-29T22:08:42.768Z,101985.16
2018-09-29T22:11:11.289Z,101987.70
2018-09-29T22:13:40.167Z,101979.13
2018-09-29T22:16:08.709Z,101975.62
2018-09-29T22:18:37.226Z,101972.91
2018-09-29T22:21:05.907Z,101967.37
2018-09-29T22:23:34.322Z,101966.05
2018-09-29T22:26:04.117Z,101972.58
2018-09-29T22:28:32.656Z,101968.03
2018-09-29T22:31:02.753Z,101961.52
2018-09-29T22:33:31.300Z,101954.98
2018-09-29T22:35:59.828Z,101957.48
2018-09-29T22:38:28.500Z,101954.30
2018-09-29T22:40:57.399Z,101954.31
2018-09-29T22:43:26.204Z,101952.13
2018-09-29T22:45:55.706Z,101951.45
2018-09-29T22:48:24.249Z,101946.94
2018-09-29T22:50:52.767Z,101948.79
2018-09-29T22:53:21.649Z,101933.35
2018-09-29T22:55:50.144Z,101936.55
2018-09-29T22:58:18.710Z,101933.50
2018-09-29T23:00:47.294Z,101933.84
2018-09-29T23:03:15.834Z,101925.97
2018-09-29T23:05:44.356Z,101922.94
2018-09-29T23:08:12.870Z,101921.44
2018-09-29T23:10:41.609Z,101916.90
2018-09-29T23:13:10.412Z,101912.38
2018-09-29T23:15:38.919Z,101909.86
2018-09-29T23:18:07.455Z,101911.87
2018-09-29T23:20:36.284Z,101910.02
2018-09-29T23:23:04.783Z,101903.48
2018-09-29T23:25:33.381Z,101904.13
2018-09-29T23:28:03.128Z,101895.09
2018-09-29T23:30:31.609Z,101895.61
2018-09-29T23:33:00.098Z,101889.91
2018-09-29T23:35:28.827Z,101880.34
2018-09-29T23:37:57.415Z,101877.47
2018-09-29T23:40:25.931Z,101884.53
2018-09-29T23:42:54.421Z,101882.53
2018-09-29T23:45:30.700Z,101877.98
2018-09-29T23:47:59.218Z,101869.42
2018-09-29T23:50:28.686Z,101869.77
2018-09-29T23:52:57.222Z,101865.57
2018-09-29T23:55:25.754Z,101861.38
2018-09-29T23:57:54.256Z,101856.50
